sensor_id;sensor_type;location;lat;lon;timestamp;pressure;altitude;pressure_sealevel;temperature
20730;BMP280;10526;50.850;12.928;2024-01-11T00:02:01;99154.09;;;-8.81
20730;BMP280;10526;50.850;12.928;2024-01-11T00:06:23;99145.91;;;-8.90
20730;BMP280;10526;50.850;12.928;2024-01-11T00:10:45;99145.81;;;-8.95
20730;BMP280;10526;50.850;12.928;2024-01-11T00:15:08;99139.75;;;-9.00
20730;BMP280;10526;50.850;12.928;2024-01-11T00:19:30;99128.56;;;-9.06
20730;BMP280;10526;50.850;12.928;2024-01-11T00:23:52;99137.97;;;-9.12
20730;BMP280;10526;50.850;12.928;2024-01-11T00:28:15;99135.97;;;-9.21
20730;BMP280;10526;50.850;12.928;2024-01-11T00:32:37;99134.59;;;-9.24
20730;BMP280;10526;50.850;12.928;2024-01-11T00:36:59;99124.75;;;-9.27
20730;BMP280;10526;50.850;12.928;2024-01-11T00:41:21;99122.28;;;-9.33
20730;BMP280;10526;50.850;12.928;2024-01-11T00:45:45;99128.47;;;-9.35
20730;BMP280;10526;50.850;12.928;2024-01-11T00:50:08;99130.38;;;-9.42
20730;BMP280;10526;50.850;12.928;2024-01-11T00:54:31;99122.16;;;-9.50
20730;BMP280;10526;50.850;12.928;2024-01-11T00:58:54;99126.66;;;-9.58
20730;BMP280;10526;50.850;12.928;2024-01-11T01:03:16;99117.44;;;-9.65
20730;BMP280;10526;50.850;12.928;2024-01-11T01:07:38;99106.81;;;-9.69
20730;BMP280;10526;50.850;12.928;2024-01-11T01:12:00;99113.75;;;-9.69
20730;BMP280;10526;50.850;12.928;2024-01-11T01:16:22;99110.63;;;-9.71
20730;BMP280;10526;50.850;12.928;2024-01-11T01:20:44;99096.00;;;-9.77
20730;BMP280;10526;50.850;12.928;2024-01-11T01:25:07;99091.53;;;-9.82
20730;BMP280;10526;50.850;12.928;2024-01-11T01:29:29;99104.84;;;-9.85
20730;BMP280;10526;50.850;12.928;2024-01-11T01:33:51;99101.59;;;-9.92
20730;BMP280;10526;50.850;12.928;2024-01-11T01:38:14;99097.09;;;-9.97
20730;BMP280;10526;50.850;12.928;2024-01-11T01:42:36;99087.69;;;-10.03
20730;BMP280;10526;50.850;12.928;2024-01-11T01:46:58;99090.13;;;-10.08
20730;BMP280;10526;50.850;12.928;2024-01-11T01:51:21;99080.03;;;-10.10
20730;BMP280;10526;50.850;12.928;2024-01-11T01:55:43;99084.31;;;-10.15
20730;BMP280;10526;50.850;12.928;2024-01-11T02:00:06;99089.47;;;-10.15
20730;BMP280;10526;50.850;12.928;2024-01-11T02:04:33;99095.81;;;-10.18
20730;BMP280;10526;50.850;12.928;2024-01-11T02:08:56;99112.72;;;-10.22
20730;BMP280;10526;50.850;12.928;2024-01-11T02:13:21;99116.53;;;-10.25
20730;BMP280;10526;50.850;12.928;2024-01-11T02:17:43;99128.38;;;-10.24
20730;BMP280;10526;50.850;12.928;2024-01-11T02:22:28;99130.75;;;-10.22
20730;BMP280;10526;50.850;12.928;2024-01-11T02:27:02;99119.31;;;-10.26
20730;BMP280;10526;50.850;12.928;2024-01-11T02:31:25;99116.59;;;-10.31
20730;BMP280;10526;50.850;12.928;2024-01-11T02:35:47;99109.31;;;-10.34
20730;BMP280;10526;50.850;12.928;2024-01-11T02:40:09;99111.53;;;-10.38
20730;BMP280;10526;50.850;12.928;2024-01-11T02:44:31;99112.38;;;-10.44
20730;BMP280;10526;50.850;12.928;2024-01-11T02:48:54;99109.72;;;-10.49
20730;BMP280;10526;50.850;12.928;2024-01-11T02:53:16;99119.63;;;-10.53
20730;BMP280;10526;50.850;12.928;2024-01-11T02:57:38;99129.94;;;-10.53
20730;BMP280;10526;50.850;12.928;2024-01-11T03:02:00;99123.66;;;-10.57
20730;BMP280;10526;50.850;12.928;2024-01-11T03:06:23;99117.00;;;-10.64
20730;BMP280;10526;50.850;12.928;2024-01-11T03:10:45;99128.72;;;-10.69
20730;BMP280;10526;50.850;12.928;2024-01-11T03:15:07;99150.09;;;-10.68
20730;BMP280;10526;50.850;12.928;2024-01-11T03:19:30;99159.31;;;-10.60
20730;BMP280;10526;50.850;12.928;2024-01-11T03:23:52;99152.59;;;-10.61
20730;BMP280;10526;50.850;12.928;2024-01-11T03:28:14;99148.66;;;-10.64
20730;BMP280;10526;50.850;12.928;2024-01-11T03:32:37;99155.72;;;-10.59
20730;BMP280;10526;50.850;12.928;2024-01-11T03:37:01;99154.94;;;-10.60
20730;BMP280;10526;50.850;12.928;2024-01-11T03:41:23;99150.41;;;-10.58
20730;BMP280;10526;50.850;12.928;2024-01-11T03:45:45;99136.22;;;-10.49
20730;BMP280;10526;50.850;12.928;2024-01-11T03:50:07;99136.50;;;-10.38
20730;BMP280;10526;50.850;12.928;2024-01-11T03:54:30;99150.16;;;-10.38
20730;BMP280;10526;50.850;12.928;2024-01-11T03:58:52;99130.81;;;-10.29
20730;BMP280;10526;50.850;12.928;2024-01-11T04:03:14;99126.13;;;-10.20
20730;BMP280;10526;50.850;12.928;2024-01-11T04:07:36;99116.78;;;-10.14
20730;BMP280;10526;50.850;12.928;2024-01-11T04:11:58;99116.53;;;-10.13
20730;BMP280;10526;50.850;12.928;2024-01-11T04:16:21;99120.44;;;-10.22
20730;BMP280;10526;50.850;12.928;2024-01-11T04:20:43;99123.53;;;-10.32
20730;BMP280;10526;50.850;12.928;2024-01-11T04:25:06;99111.44;;;-10.31
20730;BMP280;10526;50.850;12.928;2024-01-11T04:29:28;99105.53;;;-10.20
20730;BMP280;10526;50.850;12.928;2024-01-11T04:33:50;99078.63;;;-10.06
20730;BMP280;10526;50.850;12.928;2024-01-11T04:38:13;99070.03;;;-9.88
20730;BMP280;10526;50.850;12.928;2024-01-11T04:42:35;99090.84;;;-9.77
20730;BMP280;10526;50.850;12.928;2024-01-11T04:46:57;99076.88;;;-9.70
20730;BMP280;10526;50.850;12.928;2024-01-11T04:51:20;99090.31;;;-9.68
20730;BMP280;10526;50.850;12.928;2024-01-11T04:55:42;99098.50;;;-9.71
20730;BMP280;10526;50.850;12.928;2024-01-11T05:00:05;99108.59;;;-9.81
20730;BMP280;10526;50.850;12.928;2024-01-11T05:04:27;99117.44;;;-9.89
20730;BMP280;10526;50.850;12.928;2024-01-11T05:08:51;99141.56;;;-10.02
20730;BMP280;10526;50.850;12.928;2024-01-11T05:13:18;99174.03;;;-10.01
20730;BMP280;10526;50.850;12.928;2024-01-11T05:17:40;99182.94;;;-9.96
20730;BMP280;10526;50.850;12.928;2024-01-11T05:22:04;99182.47;;;-9.93
20730;BMP280;10526;50.850;12.928;2024-01-11T05:26:26;99179.03;;;-9.87
20730;BMP280;10526;50.850;12.928;2024-01-11T05:30:48;99177.00;;;-9.85
20730;BMP280;10526;50.850;12.928;2024-01-11T05:35:10;99169.94;;;-9.90
20730;BMP280;10526;50.850;12.928;2024-01-11T05:39:32;99151.44;;;-9.98
20730;BMP280;10526;50.850;12.928;2024-01-11T05:43:55;99144.13;;;-10.02
20730;BMP280;10526;50.850;12.928;2024-01-11T05:48:17;99153.56;;;-9.95
20730;BMP280;10526;50.850;12.928;2024-01-11T05:52:40;99159.84;;;-9.91
20730;BMP280;10526;50.850;12.928;2024-01-11T05:57:02;99148.81;;;-9.80
20730;BMP280;10526;50.850;12.928;2024-01-11T06:01:24;99130.09;;;-9.75
20730;BMP280;10526;50.850;12.928;2024-01-11T06:05:46;99129.44;;;-9.71
20730;BMP280;10526;50.850;12.928;2024-01-11T06:10:09;99141.22;;;-9.63
20730;BMP280;10526;50.850;12.928;2024-01-11T06:14:31;99140.53;;;-9.59
20730;BMP280;10526;50.850;12.928;2024-01-11T06:18:53;99161.16;;;-9.59
20730;BMP280;10526;50.850;12.928;2024-01-11T06:23:15;99180.66;;;-9.63
20730;BMP280;10526;50.850;12.928;2024-01-11T06:27:40;99184.66;;;-9.67
20730;BMP280;10526;50.850;12.928;2024-01-11T06:32:03;99172.00;;;-9.80
20730;BMP280;10526;50.850;12.928;2024-01-11T06:36:25;99170.28;;;-9.86
20730;BMP280;10526;50.850;12.928;2024-01-11T06:40:50;99164.34;;;-9.87
20730;BMP280;10526;50.850;12.928;2024-01-11T06:45:13;99182.16;;;-9.85
20730;BMP280;10526;50.850;12.928;2024-01-11T06:49:38;99185.22;;;-9.76
20730;BMP280;10526;50.850;12.928;2024-01-11T06:54:01;99199.91;;;-9.77
20730;BMP280;10526;50.850;12.928;2024-01-11T06:58:23;99194.28;;;-9.74
20730;BMP280;10526;50.850;12.928;2024-01-11T07:02:46;99186.69;;;-9.69
20730;BMP280;10526;50.850;12.928;2024-01-11T07:07:08;99191.38;;;-9.66
20730;BMP280;10526;50.850;12.928;2024-01-11T07:11:30;99197.72;;;-9.62
20730;BMP280;10526;50.850;12.928;2024-01-11T07:15:54;99166.47;;;-9.53
20730;BMP280;10526;50.850;12.928;2024-01-11T07:20:17;99148.19;;;-9.40
20730;BMP280;10526;50.850;12.928;2024-01-11T07:24:41;99158.50;;;-9.17
20730;BMP280;10526;50.850;12.928;2024-01-11T07:29:03;99146.50;;;-8.87
20730;BMP280;10526;50.850;12.928;2024-01-11T07:33:25;99143.16;;;-8.59
20730;BMP280;10526;50.850;12.928;2024-01-11T07:37:47;99139.31;;;-8.28
20730;BMP280;10526;50.850;12.928;2024-01-11T07:42:11;99131.94;;;-8.08
20730;BMP280;10526;50.850;12.928;2024-01-11T07:46:33;99159.47;;;-7.85
20730;BMP280;10526;50.850;12.928;2024-01-11T07:51:06;99144.19;;;-7.52
20730;BMP280;10526;50.850;12.928;2024-01-11T07:55:28;99119.75;;;-6.57
20730;BMP280;10526;50.850;12.928;2024-01-11T07:59:51;99122.13;;;-5.96
20730;BMP280;10526;50.850;12.928;2024-01-11T08:04:13;99120.47;;;-6.07
20730;BMP280;10526;50.850;12.928;2024-01-11T08:08:35;99134.53;;;-6.30
20730;BMP280;10526;50.850;12.928;2024-01-11T08:12:58;99130.78;;;-6.40
20730;BMP280;10526;50.850;12.928;2024-01-11T08:17:21;99125.56;;;-6.72
20730;BMP280;10526;50.850;12.928;2024-01-11T08:21:44;99128.19;;;-6.89
20730;BMP280;10526;50.850;12.928;2024-01-11T08:26:06;99123.63;;;-7.03
20730;BMP280;10526;50.850;12.928;2024-01-11T08:30:28;99142.72;;;-7.10
20730;BMP280;10526;50.850;12.928;2024-01-11T08:34:51;99152.06;;;-6.87
20730;BMP280;10526;50.850;12.928;2024-01-11T08:39:13;99144.94;;;-5.61
20730;BMP280;10526;50.850;12.928;2024-01-11T08:43:39;99123.84;;;-5.27
20730;BMP280;10526;50.850;12.928;2024-01-11T08:48:01;99130.84;;;-5.28
20730;BMP280;10526;50.850;12.928;2024-01-11T08:52:24;99136.47;;;-2.36
20730;BMP280;10526;50.850;12.928;2024-01-11T08:56:46;99180.50;;;-0.56
20730;BMP280;10526;50.850;12.928;2024-01-11T09:01:09;99170.16;;;-0.29
20730;BMP280;10526;50.850;12.928;2024-01-11T09:05:32;99183.22;;;1.82
20730;BMP280;10526;50.850;12.928;2024-01-11T09:09:54;99195.94;;;4.90
20730;BMP280;10526;50.850;12.928;2024-01-11T09:14:18;99183.34;;;6.76
20730;BMP280;10526;50.850;12.928;2024-01-11T09:18:40;99186.78;;;5.09
20730;BMP280;10526;50.850;12.928;2024-01-11T09:23:06;99182.63;;;6.91
20730;BMP280;10526;50.850;12.928;2024-01-11T09:27:28;99200.25;;;6.71
20730;BMP280;10526;50.850;12.928;2024-01-11T09:31:50;99200.78;;;5.88
20730;BMP280;10526;50.850;12.928;2024-01-11T09:36:13;99183.25;;;5.38
20730;BMP280;10526;50.850;12.928;2024-01-11T09:40:36;99175.97;;;4.81
20730;BMP280;10526;50.850;12.928;2024-01-11T09:44:59;99174.59;;;5.49
20730;BMP280;10526;50.850;12.928;2024-01-11T09:49:22;99168.91;;;6.21
20730;BMP280;10526;50.850;12.928;2024-01-11T09:53:46;99175.75;;;6.74
20730;BMP280;10526;50.850;12.928;2024-01-11T09:58:09;99181.78;;;8.26
20730;BMP280;10526;50.850;12.928;2024-01-11T10:02:33;99182.38;;;7.68
20730;BMP280;10526;50.850;12.928;2024-01-11T10:06:55;99192.78;;;8.82
20730;BMP280;10526;50.850;12.928;2024-01-11T10:11:18;99207.94;;;9.01
20730;BMP280;10526;50.850;12.928;2024-01-11T10:15:40;99211.31;;;9.90
20730;BMP280;10526;50.850;12.928;2024-01-11T10:20:03;99202.09;;;8.72
20730;BMP280;10526;50.850;12.928;2024-01-11T10:24:26;99190.47;;;7.44
20730;BMP280;10526;50.850;12.928;2024-01-11T10:28:48;99186.72;;;7.92
20730;BMP280;10526;50.850;12.928;2024-01-11T10:33:10;99168.03;;;8.39
20730;BMP280;10526;50.850;12.928;2024-01-11T10:37:33;99164.56;;;8.74
20730;BMP280;10526;50.850;12.928;2024-01-11T10:42:05;99172.13;;;9.87
20730;BMP280;10526;50.850;12.928;2024-01-11T10:46:29;99152.66;;;8.87
20730;BMP280;10526;50.850;12.928;2024-01-11T10:51:00;99140.47;;;7.14
20730;BMP280;10526;50.850;12.928;2024-01-11T10:55:24;99130.84;;;5.27
20730;BMP280;10526;50.850;12.928;2024-01-11T10:59:48;99127.00;;;3.44
20730;BMP280;10526;50.850;12.928;2024-01-11T11:04:11;99126.09;;;2.44
20730;BMP280;10526;50.850;12.928;2024-01-11T11:08:34;99126.75;;;3.02
20730;BMP280;10526;50.850;12.928;2024-01-11T11:13:00;99127.13;;;5.53
20730;BMP280;10526;50.850;12.928;2024-01-11T11:17:22;99130.53;;;7.55
20730;BMP280;10526;50.850;12.928;2024-01-11T11:21:46;99116.34;;;8.33
20730;BMP280;10526;50.850;12.928;2024-01-11T11:26:15;99100.97;;;8.42
20730;BMP280;10526;50.850;12.928;2024-01-11T11:30:44;99116.34;;;8.33
20730;BMP280;10526;50.850;12.928;2024-01-11T11:35:10;99104.03;;;7.23
20730;BMP280;10526;50.850;12.928;2024-01-11T11:39:32;99087.19;;;6.03
20730;BMP280;10526;50.850;12.928;2024-01-11T11:43:55;99088.16;;;5.38
20730;BMP280;10526;50.850;12.928;2024-01-11T11:52:55;99085.19;;;7.12
20730;BMP280;10526;50.850;12.928;2024-01-11T11:57:20;99069.59;;;7.74
20730;BMP280;10526;50.850;12.928;2024-01-11T12:01:43;99074.69;;;7.16
20730;BMP280;10526;50.850;12.928;2024-01-11T12:06:08;99068.38;;;7.05
20730;BMP280;10526;50.850;12.928;2024-01-11T12:10:31;99059.03;;;6.23
20730;BMP280;10526;50.850;12.928;2024-01-11T12:14:54;99050.84;;;6.56
20730;BMP280;10526;50.850;12.928;2024-01-11T12:19:17;99051.16;;;5.38
20730;BMP280;10526;50.850;12.928;2024-01-11T12:23:39;99037.88;;;4.14
20730;BMP280;10526;50.850;12.928;2024-01-11T12:28:02;99049.69;;;2.93
20730;BMP280;10526;50.850;12.928;2024-01-11T12:32:26;99055.09;;;2.96
20730;BMP280;10526;50.850;12.928;2024-01-11T12:36:48;99052.63;;;2.57
20730;BMP280;10526;50.850;12.928;2024-01-11T12:41:11;99053.56;;;2.43
20730;BMP280;10526;50.850;12.928;2024-01-11T12:45:35;99034.50;;;2.72
20730;BMP280;10526;50.850;12.928;2024-01-11T12:49:57;99020.13;;;2.87
20730;BMP280;10526;50.850;12.928;2024-01-11T12:54:20;99027.72;;;2.71
20730;BMP280;10526;50.850;12.928;2024-01-11T12:58:43;99029.00;;;2.31
20730;BMP280;10526;50.850;12.928;2024-01-11T13:03:05;99023.78;;;1.99
20730;BMP280;10526;50.850;12.928;2024-01-11T13:07:27;99024.53;;;1.83
20730;BMP280;10526;50.850;12.928;2024-01-11T13:11:49;99026.00;;;1.58
20730;BMP280;10526;50.850;12.928;2024-01-11T13:16:12;99012.47;;;1.42
20730;BMP280;10526;50.850;12.928;2024-01-11T13:20:36;99004.19;;;1.17
20730;BMP280;10526;50.850;12.928;2024-01-11T13:24:58;99012.88;;;1.27
20730;BMP280;10526;50.850;12.928;2024-01-11T13:29:20;99002.94;;;1.15
20730;BMP280;10526;50.850;12.928;2024-01-11T13:33:42;99016.50;;;1.08
20730;BMP280;10526;50.850;12.928;2024-01-11T13:38:04;99018.25;;;0.99
20730;BMP280;10526;50.850;12.928;2024-01-11T13:42:27;99021.59;;;0.91
20730;BMP280;10526;50.850;12.928;2024-01-11T13:46:50;99031.91;;;0.87
20730;BMP280;10526;50.850;12.928;2024-01-11T13:51:13;99015.09;;;0.88
20730;BMP280;10526;50.850;12.928;2024-01-11T13:55:37;99024.75;;;0.79
20730;BMP280;10526;50.850;12.928;2024-01-11T14:00:01;99021.72;;;0.49
20730;BMP280;10526;50.850;12.928;2024-01-11T14:04:25;99027.06;;;0.22
20730;BMP280;10526;50.850;12.928;2024-01-11T14:08:47;99034.84;;;-0.14
20730;BMP280;10526;50.850;12.928;2024-01-11T14:13:13;99016.47;;;-0.42
20730;BMP280;10526;50.850;12.928;2024-01-11T14:17:34;99010.53;;;-0.61
20730;BMP280;10526;50.850;12.928;2024-01-11T14:22:45;99003.72;;;-0.76
20730;BMP280;10526;50.850;12.928;2024-01-11T14:27:13;99001.25;;;-0.86
20730;BMP280;10526;50.850;12.928;2024-01-11T14:31:36;99006.84;;;-0.93
20730;BMP280;10526;50.850;12.928;2024-01-11T14:35:59;99020.56;;;-1.01
20730;BMP280;10526;50.850;12.928;2024-01-11T14:40:22;99026.47;;;-1.09
20730;BMP280;10526;50.850;12.928;2024-01-11T14:44:48;99023.97;;;-1.19
20730;BMP280;10526;50.850;12.928;2024-01-11T14:49:10;99027.09;;;-1.36
20730;BMP280;10526;50.850;12.928;2024-01-11T14:53:33;99021.97;;;-1.47
20730;BMP280;10526;50.850;12.928;2024-01-11T14:57:55;99029.47;;;-1.59
20730;BMP280;10526;50.850;12.928;2024-01-11T15:02:20;99023.13;;;-1.72
20730;BMP280;10526;50.850;12.928;2024-01-11T15:06:43;99025.63;;;-1.85
20730;BMP280;10526;50.850;12.928;2024-01-11T15:11:07;99019.50;;;-2.00
20730;BMP280;10526;50.850;12.928;2024-01-11T15:15:30;99026.94;;;-2.12
20730;BMP280;10526;50.850;12.928;2024-01-11T15:19:51;99024.47;;;-2.22
20730;BMP280;10526;50.850;12.928;2024-01-11T15:24:13;99018.00;;;-2.35
20730;BMP280;10526;50.850;12.928;2024-01-11T15:28:35;99020.22;;;-2.47
20730;BMP280;10526;50.850;12.928;2024-01-11T15:32:58;99027.09;;;-2.56
20730;BMP280;10526;50.850;12.928;2024-01-11T15:37:40;99027.94;;;-2.66
20730;BMP280;10526;50.850;12.928;2024-01-11T15:42:58;99043.09;;;-2.73
20730;BMP280;10526;50.850;12.928;2024-01-11T15:47:59;99033.56;;;-2.83
20730;BMP280;10526;50.850;12.928;2024-01-11T15:52:59;99033.03;;;-2.80
20730;BMP280;10526;50.850;12.928;2024-01-11T15:58:03;99032.50;;;-2.82
20730;BMP280;10526;50.850;12.928;2024-01-11T16:03:58;99043.28;;;-2.94
20730;BMP280;10526;50.850;12.928;2024-01-11T16:08:55;99061.31;;;-3.02
20730;BMP280;10526;50.850;12.928;2024-01-11T16:13:17;99051.47;;;-3.16
20730;BMP280;10526;50.850;12.928;2024-01-11T16:17:39;99043.72;;;-3.26
20730;BMP280;10526;50.850;12.928;2024-01-11T16:22:01;99047.09;;;-3.25
20730;BMP280;10526;50.850;12.928;2024-01-11T16:26:24;99041.94;;;-3.35
20730;BMP280;10526;50.850;12.928;2024-01-11T16:30:46;99040.44;;;-3.47
20730;BMP280;10526;50.850;12.928;2024-01-11T16:35:09;99044.34;;;-3.54
20730;BMP280;10526;50.850;12.928;2024-01-11T16:39:31;99057.69;;;-3.61
20730;BMP280;10526;50.850;12.928;2024-01-11T16:43:53;99074.59;;;-3.64
20730;BMP280;10526;50.850;12.928;2024-01-11T16:48:15;99073.78;;;-3.59
20730;BMP280;10526;50.850;12.928;2024-01-11T16:52:39;99093.81;;;-3.54
20730;BMP280;10526;50.850;12.928;2024-01-11T16:57:01;99084.19;;;-3.49
20730;BMP280;10526;50.850;12.928;2024-01-11T17:01:26;99076.63;;;-3.45
20730;BMP280;10526;50.850;12.928;2024-01-11T17:05:49;99066.75;;;-3.48
20730;BMP280;10526;50.850;12.928;2024-01-11T17:10:11;99060.25;;;-3.56
20730;BMP280;10526;50.850;12.928;2024-01-11T17:14:33;99059.00;;;-3.69
20730;BMP280;10526;50.850;12.928;2024-01-11T17:18:57;99067.84;;;-3.70
20730;BMP280;10526;50.850;12.928;2024-01-11T17:23:19;99066.75;;;-3.53
20730;BMP280;10526;50.850;12.928;2024-01-11T17:27:41;99074.53;;;-3.38
20730;BMP280;10526;50.850;12.928;2024-01-11T17:32:04;99087.75;;;-3.29
20730;BMP280;10526;50.850;12.928;2024-01-11T17:36:26;99093.19;;;-3.21
20730;BMP280;10526;50.850;12.928;2024-01-11T17:40:49;99118.69;;;-3.13
20730;BMP280;10526;50.850;12.928;2024-01-11T17:45:11;99116.84;;;-3.07
20730;BMP280;10526;50.850;12.928;2024-01-11T17:49:34;99112.66;;;-3.08
20730;BMP280;10526;50.850;12.928;2024-01-11T17:53:57;99113.94;;;-3.05
20730;BMP280;10526;50.850;12.928;2024-01-11T17:58:19;99113.66;;;-3.04
20730;BMP280;10526;50.850;12.928;2024-01-11T18:02:43;99130.59;;;-3.01
20730;BMP280;10526;50.850;12.928;2024-01-11T18:07:05;99129.59;;;-3.05
20730;BMP280;10526;50.850;12.928;2024-01-11T18:11:27;99130.66;;;-3.11
20730;BMP280;10526;50.850;12.928;2024-01-11T18:15:49;99143.38;;;-3.05
20730;BMP280;10526;50.850;12.928;2024-01-11T18:20:12;99138.41;;;-3.01
20730;BMP280;10526;50.850;12.928;2024-01-11T18:24:35;99144.91;;;-2.94
20730;BMP280;10526;50.850;12.928;2024-01-11T18:28:58;99156.91;;;-2.98
20730;BMP280;10526;50.850;12.928;2024-01-11T18:33:20;99161.34;;;-2.93
20730;BMP280;10526;50.850;12.928;2024-01-11T18:37:44;99161.34;;;-2.98
20730;BMP280;10526;50.850;12.928;2024-01-11T18:42:06;99156.13;;;-2.98
20730;BMP280;10526;50.850;12.928;2024-01-11T18:46:31;99165.28;;;-2.96
20730;BMP280;10526;50.850;12.928;2024-01-11T18:50:58;99162.38;;;-2.94
20730;BMP280;10526;50.850;12.928;2024-01-11T18:55:22;99160.28;;;-2.97
20730;BMP280;10526;50.850;12.928;2024-01-11T18:59:44;99163.66;;;-2.86
20730;BMP280;10526;50.850;12.928;2024-01-11T19:04:06;99163.34;;;-2.80
20730;BMP280;10526;50.850;12.928;2024-01-11T19:08:28;99180.53;;;-2.79
20730;BMP280;10526;50.850;12.928;2024-01-11T19:12:50;99187.34;;;-2.83
20730;BMP280;10526;50.850;12.928;2024-01-11T19:17:12;99180.34;;;-2.87
20730;BMP280;10526;50.850;12.928;2024-01-11T19:21:36;99191.25;;;-2.85
20730;BMP280;10526;50.850;12.928;2024-01-11T19:25:59;99188.38;;;-2.79
20730;BMP280;10526;50.850;12.928;2024-01-11T19:30:21;99189.09;;;-2.73
20730;BMP280;10526;50.850;12.928;2024-01-11T19:34:43;99200.28;;;-2.62
20730;BMP280;10526;50.850;12.928;2024-01-11T19:39:07;99200.00;;;-2.56
20730;BMP280;10526;50.850;12.928;2024-01-11T19:43:34;99198.19;;;-2.66
20730;BMP280;10526;50.850;12.928;2024-01-11T19:47:57;99191.47;;;-2.72
20730;BMP280;10526;50.850;12.928;2024-01-11T19:52:19;99197.16;;;-2.70
20730;BMP280;10526;50.850;12.928;2024-01-11T19:56:41;99196.13;;;-2.69
20730;BMP280;10526;50.850;12.928;2024-01-11T20:01:04;99191.94;;;-2.70
20730;BMP280;10526;50.850;12.928;2024-01-11T20:05:26;99189.84;;;-2.62
20730;BMP280;10526;50.850;12.928;2024-01-11T20:09:49;99177.06;;;-2.59
20730;BMP280;10526;50.850;12.928;2024-01-11T20:14:11;99170.81;;;-2.63
20730;BMP280;10526;50.850;12.928;2024-01-11T20:18:35;99158.06;;;-2.70
20730;BMP280;10526;50.850;12.928;2024-01-11T20:23:00;99174.81;;;-2.76
20730;BMP280;10526;50.850;12.928;2024-01-11T20:27:22;99177.66;;;-2.77
20730;BMP280;10526;50.850;12.928;2024-01-11T20:31:45;99179.47;;;-2.73
20730;BMP280;10526;50.850;12.928;2024-01-11T20:36:07;99167.44;;;-2.63
20730;BMP280;10526;50.850;12.928;2024-01-11T20:40:30;99159.06;;;-2.66
20730;BMP280;10526;50.850;12.928;2024-01-11T20:44:52;99166.91;;;-2.60
20730;BMP280;10526;50.850;12.928;2024-01-11T20:49:14;99175.69;;;-2.51
20730;BMP280;10526;50.850;12.928;2024-01-11T20:53:36;99166.53;;;-2.44
20730;BMP280;10526;50.850;12.928;2024-01-11T20:57:59;99162.31;;;-2.39
20730;BMP280;10526;50.850;12.928;2024-01-11T21:02:21;99176.41;;;-2.40
20730;BMP280;10526;50.850;12.928;2024-01-11T21:06:43;99177.72;;;-2.43
20730;BMP280;10526;50.850;12.928;2024-01-11T21:11:06;99171.25;;;-2.51
20730;BMP280;10526;50.850;12.928;2024-01-11T21:15:29;99166.28;;;-2.47
20730;BMP280;10526;50.850;12.928;2024-01-11T21:19:51;99171.50;;;-2.47
20730;BMP280;10526;50.850;12.928;2024-01-11T21:24:13;99172.03;;;-2.45
20730;BMP280;10526;50.850;12.928;2024-01-11T21:28:36;99179.38;;;-2.52
20730;BMP280;10526;50.850;12.928;2024-01-11T21:32:58;99179.13;;;-2.56
20730;BMP280;10526;50.850;12.928;2024-01-11T21:37:20;99182.56;;;-2.60
20730;BMP280;10526;50.850;12.928;2024-01-11T21:41:42;99192.44;;;-2.57
20730;BMP280;10526;50.850;12.928;2024-01-11T21:46:04;99197.09;;;-2.49
20730;BMP280;10526;50.850;12.928;2024-01-11T21:50:29;99199.84;;;-2.35
20730;BMP280;10526;50.850;12.928;2024-01-11T21:54:53;99202.19;;;-2.29
20730;BMP280;10526;50.850;12.928;2024-01-11T21:59:18;99205.22;;;-2.16
20730;BMP280;10526;50.850;12.928;2024-01-11T22:03:40;99208.56;;;-2.11
20730;BMP280;10526;50.850;12.928;2024-01-11T22:08:04;99196.78;;;-2.03
20730;BMP280;10526;50.850;12.928;2024-01-11T22:12:25;99200.63;;;-2.01
20730;BMP280;10526;50.850;12.928;2024-01-11T22:16:48;99198.03;;;-2.01
20730;BMP280;10526;50.850;12.928;2024-01-11T22:21:11;99210.81;;;-1.99
20730;BMP280;10526;50.850;12.928;2024-01-11T22:25:35;99211.09;;;-2.01
20730;BMP280;10526;50.850;12.928;2024-01-11T22:29:57;99214.44;;;-1.95
20730;BMP280;10526;50.850;12.928;2024-01-11T22:34:22;99207.38;;;-1.95
20730;BMP280;10526;50.850;12.928;2024-01-11T22:38:45;99209.22;;;-1.95
20730;BMP280;10526;50.850;12.928;2024-01-11T22:43:07;99208.44;;;-1.96
20730;BMP280;10526;50.850;12.928;2024-01-11T22:47:29;99216.78;;;-1.94
20730;BMP280;10526;50.850;12.928;2024-01-11T22:51:51;99210.00;;;-1.95
20730;BMP280;10526;50.850;12.928;2024-01-11T22:56:13;99214.69;;;-1.97
20730;BMP280;10526;50.850;12.928;2024-01-11T23:00:36;99213.91;;;-1.92
20730;BMP280;10526;50.850;12.928;2024-01-11T23:04:59;99209.72;;;-1.93
20730;BMP280;10526;50.850;12.928;2024-01-11T23:09:21;99208.22;;;-1.99
20730;BMP280;10526;50.850;12.928;2024-01-11T23:14:03;99203.00;;;-1.99
20730;BMP280;10526;50.850;12.928;2024-01-11T23:18:25;99205.88;;;-2.01
20730;BMP280;10526;50.850;12.928;2024-01-11T23:22:47;99194.47;;;-2.10
20730;BMP280;10526;50.850;12.928;2024-01-11T23:27:10;99196.91;;;-2.24
20730;BMP280;10526;50.850;12.928;2024-01-11T23:31:32;99191.97;;;-2.25
20730;BMP280;10526;50.850;12.928;2024-01-11T23:35:55;99173.94;;;-2.22
20730;BMP280;10526;50.850;12.928;2024-01-11T23:40:17;99174.25;;;-2.28
20730;BMP280;10526;50.850;12.928;2024-01-11T23:44:40;99156.75;;;-2.28
20730;BMP280;10526;50.850;12.928;2024-01-11T23:49:03;99162.28;;;-2.29
20730;BMP280;10526;50.850;12.928;2024-01-11T23:53:25;99166.66;;;-2.25
20730;BMP280;10526;50.850;12.928;2024-01-11T23:57:47;99164.59;;;-2.28
